Time (yr/mo/day/hr) Wind Speed at 50 metres (Glencore Tower; km/hr) Wind Direction at 50 metres (Glencore Tower; degrees) Temperature (oC) SO2 Dispersion Conditions Mixing Height (m)
2020 02 22 13 16 231 2 Slightly unstable 1498
2020 02 22 14 20 235 2 Neutral 1332
2020 02 22 15 20 239 3 Neutral 1332
2020 02 22 16 20 241 2 Neutral 1267
2020 02 22 17 19 240 1 Neutral 1154
2020 02 22 18 18 236 0 Neutral 1119
2020 02 22 19 18 235 -1 Slightly stable 1065
2020 02 22 20 16 232 -1 Slightly stable 826
2020 02 22 21 14 227 -2 Slightly stable 637
2020 02 22 22 13 223 -3 Slightly stable 573
2020 02 22 23 14 225 -3 Slightly stable 606
2020 02 23 00 15 234 -4 Slightly stable 708
2020 02 23 01 16 242 -3 Slightly stable 812
2020 02 23 02 16 245 -3 Slightly stable 891
2020 02 23 03 17 245 -3 Slightly stable 922
2020 02 23 04 16 245 -3 Slightly stable 821
2020 02 23 05 15 243 -3 Slightly stable 671
2020 02 23 06 13 242 -4 Slightly stable 539
2020 02 23 07 13 236 -4 Slightly stable 500
2020 02 23 08 13 225 -3 Neutral 551
2020 02 23 09 13 221 -2 Neutral 567
2020 02 23 10 15 218 0 Slightly unstable 745
2020 02 23 11 15 214 1 Slightly unstable 804
2020 02 23 12 16 207 3 Slightly unstable 784
2020 02 23 13 19 205 4 Neutral 930